Time;durP1;ratioP1;P1;durP2;ratioP2;P2;SDS_P1;SDS_P2;PMS_P1;PMS_P2;Temp;Humidity;BMP_temperature;BMP_pressure;BME280_temperature;BME280_humidity;BME280_pressure;Samples;Min_cycle;Max_cycle;Signal;HPM_P1;HPM_P2
2022/06/24 00:02:12;;;;;;;5.43;2.10;;;17.30;99.90;;;;;;5069426;28;20048;-76
2022/06/24 00:04:40;;;;;;;20.17;2.17;;;17.30;99.90;;;;;;5070449;28;20055;-78
2022/06/24 00:07:15;;;;;;;5.50;1.80;;;17.30;99.90;;;;;;5089481;28;20479;-77
2022/06/24 00:09:44;;;;;;;3.58;2.17;;;17.30;99.90;;;;;;5089753;28;20071;-76
2022/06/24 00:12:14;;;;;;;3.17;2.40;;;17.20;99.90;;;;;;5089462;28;20051;-77
2022/06/24 00:14:47;;;;;;;6.22;2.05;;;17.20;99.90;;;;;;5091512;28;20040;-76
2022/06/24 00:17:15;;;;;;;5.63;3.15;;;17.20;99.90;;;;;;5094128;28;20051;-76
2022/06/24 00:19:55;;;;;;;6.55;1.98;;;17.20;99.90;;;;;;5093049;28;20055;-75
2022/06/24 00:22:23;;;;;;;3.42;2.28;;;17.20;99.90;;;;;;5093320;28;20044;-77
2022/06/24 00:25:09;;;;;;;7.93;1.75;;;17.10;99.90;;;;;;5093895;28;20047;-76
2022/06/24 00:27:38;;;;;;;4.95;2.20;;;17.10;99.90;;;;;;5093017;28;20044;-77
2022/06/24 00:30:14;;;;;;;2.65;1.50;;;17.00;99.90;;;;;;5093164;28;20052;-78
2022/06/24 00:32:44;;;;;;;5.10;2.08;;;17.00;99.90;;;;;;5093364;28;20044;-78
2022/06/24 00:35:15;;;;;;;4.27;3.23;;;16.90;99.90;;;;;;5075046;28;20043;-77
2022/06/24 00:37:45;;;;;;;3.53;1.63;;;16.90;99.90;;;;;;5093215;28;20044;-78
2022/06/24 00:40:12;;;;;;;6.78;2.58;;;16.80;99.90;;;;;;5092761;28;20040;-77
2022/06/24 00:42:44;;;;;;;8.27;1.65;;;16.80;99.90;;;;;;5077745;28;20052;-76
2022/06/24 01:01:14;;;;;;;7.82;2.75;;;16.60;99.90;;;;;;5053575;28;20052;-82
2022/06/24 01:05:36;;;;;;;1.60;1.05;;;16.60;99.90;;;;;;5056819;28;20045;-81
2022/06/24 01:09:59;;;;;;;1.45;1.13;;;16.60;99.90;;;;;;5037148;28;20044;-80
2022/06/24 01:13:36;;;;;;;4.57;1.45;;;16.50;99.90;;;;;;5070720;28;20501;-81
2022/06/24 01:16:04;;;;;;;2.97;1.55;;;16.50;99.90;;;;;;5071852;28;20044;-80
2022/06/24 01:18:32;;;;;;;10.95;1.02;;;16.40;99.90;;;;;;5079220;28;20051;-78
2022/06/24 01:21:00;;;;;;;7.75;1.55;;;16.40;99.90;;;;;;5089195;28;20075;-80
2022/06/24 01:23:28;;;;;;;0.80;0.80;;;16.40;99.90;;;;;;5082808;28;20087;-81
2022/06/24 01:25:56;;;;;;;1.08;0.98;;;16.40;99.90;;;;;;5048274;28;20059;-77
2022/06/24 01:28:24;;;;;;;2.33;0.90;;;16.40;99.90;;;;;;5091992;28;20067;-78
2022/06/24 01:30:52;;;;;;;1.15;1.05;;;16.40;99.90;;;;;;5091794;28;20036;-79
2022/06/24 01:33:20;;;;;;;2.08;1.05;;;16.40;99.90;;;;;;5074514;28;20490;-78
2022/06/24 01:35:48;;;;;;;7.53;0.82;;;16.40;99.90;;;;;;5091630;28;20052;-79
2022/06/24 01:38:16;;;;;;;1.63;1.50;;;16.30;99.90;;;;;;5091671;28;20047;-79
2022/06/24 01:40:44;;;;;;;1.40;1.02;;;16.30;99.90;;;;;;5074169;28;20059;-79
2022/06/24 01:43:11;;;;;;;1.30;0.80;;;16.30;99.90;;;;;;5081674;28;20041;-79
2022/06/24 01:45:39;;;;;;;6.40;1.27;;;16.30;99.90;;;;;;5071939;28;20056;-78
2022/06/24 01:48:07;;;;;;;2.05;0.80;;;16.30;99.90;;;;;;5071248;28;20422;-80
2022/06/24 01:50:35;;;;;;;2.45;0.60;;;16.30;99.90;;;;;;5071302;28;20509;-79
2022/06/24 01:53:07;;;;;;;3.88;1.50;;;16.30;99.90;;;;;;5072168;28;20040;-78
2022/06/24 01:55:35;;;;;;;3.55;0.98;;;16.20;99.90;;;;;;5071152;28;20048;-79
2022/06/24 01:58:02;;;;;;;1.08;0.90;;;16.20;99.90;;;;;;5070814;28;20041;-78
2022/06/24 02:00:30;;;;;;;3.08;0.93;;;16.20;99.90;;;;;;5071923;28;20041;-79
2022/06/24 02:03:40;;;;;;;2.88;0.90;;;16.20;99.90;;;;;;5057645;28;20059;-79
2022/06/24 02:08:04;;;;;;;0.82;0.82;;;16.20;99.90;;;;;;5072275;28;20044;-79
2022/06/24 02:16:31;;;;;;;1.52;1.42;;;16.20;99.90;;;;;;5071034;28;20052;-79
2022/06/24 02:20:29;;;;;;;4.53;0.50;;;16.20;99.90;;;;;;5070491;28;20033;-79
2022/06/24 02:24:05;;;;;;;4.03;1.95;;;16.20;99.90;;;;;;5059288;28;20040;-79
2022/06/24 02:27:45;;;;;;;2.80;0.88;;;16.10;99.90;;;;;;5070477;28;20040;-79
2022/06/24 02:30:13;;;;;;;6.27;0.87;;;16.20;99.90;;;;;;5070736;28;20053;-80
2022/06/24 02:32:41;;;;;;;1.23;0.95;;;16.10;99.90;;;;;;5070843;28;20056;-78
2022/06/24 02:35:10;;;;;;;4.82;1.33;;;16.10;99.90;;;;;;5070448;28;20049;-79
2022/06/24 02:37:38;;;;;;;3.72;0.88;;;16.10;99.90;;;;;;5079675;28;20048;-79
2022/06/24 02:42:57;;;;;;;1.63;0.80;;;16.10;99.90;;;;;;5090728;28;20489;-79
2022/06/24 02:45:41;;;;;;;2.80;0.65;;;16.10;99.90;;;;;;5090844;28;20040;-78
2022/06/24 02:48:11;;;;;;;3.00;0.70;;;16.00;99.90;;;;;;5090006;28;20048;-79
2022/06/24 02:50:45;;;;;;;1.23;0.70;;;16.00;99.90;;;;;;5090273;28;20079;-79
2022/06/24 02:53:15;;;;;;;2.28;1.30;;;16.10;99.90;;;;;;5091067;28;20052;-78
2022/06/24 02:55:45;;;;;;;4.85;2.55;;;16.00;99.90;;;;;;5090251;28;20052;-79
2022/06/24 02:58:14;;;;;;;1.52;1.30;;;16.10;99.90;;;;;;5090193;28;20472;-79
2022/06/24 03:00:43;;;;;;;2.17;0.75;;;16.00;99.90;;;;;;5090696;28;20098;-78
2022/06/24 03:03:12;;;;;;;4.93;0.98;;;16.10;99.90;;;;;;5072017;28;20573;-79
2022/06/24 03:05:41;;;;;;;0.75;0.73;;;16.10;99.90;;;;;;5090415;28;20074;-79
2022/06/24 03:08:10;;;;;;;2.42;0.93;;;16.10;99.90;;;;;;5090060;28;20430;-78
2022/06/24 03:10:39;;;;;;;4.53;1.00;;;16.10;99.90;;;;;;5090096;28;20052;-80
2022/06/24 03:13:07;;;;;;;5.68;1.75;;;16.10;99.90;;;;;;5072359;28;20055;-79
2022/06/24 03:15:35;;;;;;;0.80;0.80;;;16.10;99.90;;;;;;5090303;28;20044;-79
2022/06/24 03:18:04;;;;;;;0.70;0.70;;;16.20;99.90;;;;;;5089349;28;20044;-80
2022/06/24 03:20:32;;;;;;;1.08;0.63;;;16.10;99.90;;;;;;5090361;28;20044;-79
2022/06/24 03:23:00;;;;;;;5.70;1.17;;;16.10;99.90;;;;;;5072253;28;20044;-79
2022/06/24 03:25:28;;;;;;;0.77;0.77;;;16.10;99.90;;;;;;5089967;28;20040;-83
2022/06/24 03:27:56;;;;;;;4.68;1.10;;;16.10;99.90;;;;;;5089684;28;20047;-80
2022/06/24 03:30:24;;;;;;;3.55;0.80;;;16.30;99.90;;;;;;5089962;28;20040;-80
2022/06/24 03:32:52;;;;;;;1.48;0.88;;;16.20;99.90;;;;;;5090355;28;20047;-80
2022/06/24 03:35:20;;;;;;;1.98;0.70;;;16.20;99.90;;;;;;5088261;28;20051;-79
2022/06/24 03:37:47;;;;;;;6.32;1.15;;;16.30;99.90;;;;;;5084743;28;20051;-79
2022/06/24 03:40:15;;;;;;;0.80;0.70;;;16.30;99.90;;;;;;5089340;28;20070;-79
2022/06/24 03:42:43;;;;;;;4.03;0.75;;;16.30;99.90;;;;;;5089831;28;20036;-79
2022/06/24 03:45:11;;;;;;;3.20;1.48;;;16.30;99.90;;;;;;5090410;28;20402;-80
2022/06/24 03:47:39;;;;;;;0.63;0.63;;;16.30;99.90;;;;;;5071246;28;20048;-80
2022/06/24 03:50:07;;;;;;;1.58;1.17;;;16.30;99.90;;;;;;5063711;28;20491;-80
2022/06/24 03:52:35;;;;;;;6.75;1.08;;;16.30;99.90;;;;;;5052047;28;20049;-80
2022/06/24 03:55:03;;;;;;;0.50;0.50;;;16.30;99.90;;;;;;5069388;28;20474;-81
2022/06/24 03:57:31;;;;;;;2.22;1.33;;;16.30;99.90;;;;;;5051858;28;20498;-81
2022/06/24 03:59:59;;;;;;;1.73;0.52;;;16.30;99.90;;;;;;5070879;28;20506;-80
2022/06/24 04:02:27;;;;;;;5.70;0.82;;;16.40;99.90;;;;;;5084717;28;20040;-80
2022/06/24 04:04:56;;;;;;;1.02;1.00;;;16.40;99.90;;;;;;5086580;28;20040;-80
2022/06/24 04:07:23;;;;;;;2.05;0.52;;;16.40;99.90;;;;;;5087875;28;20363;-80
2022/06/24 04:09:51;;;;;;;1.95;1.02;;;16.40;99.90;;;;;;5084783;28;20048;-80
2022/06/24 04:12:19;;;;;;;1.13;0.65;;;16.40;99.90;;;;;;5088997;28;20505;-80
2022/06/24 04:17:33;;;;;;;1.48;0.98;;;16.50;99.90;;;;;;5068709;28;20052;-80
2022/06/24 04:20:01;;;;;;;1.83;1.08;;;16.50;99.90;;;;;;5088815;28;20055;-81
2022/06/24 04:22:29;;;;;;;2.50;1.20;;;16.50;99.90;;;;;;5069326;28;20050;-80
2022/06/24 04:24:57;;;;;;;1.45;0.73;;;16.50;99.90;;;;;;5074456;28;20036;-81
2022/06/24 04:27:25;;;;;;;2.42;1.65;;;16.50;99.90;;;;;;5072599;28;20047;-80
2022/06/24 04:29:59;;;;;;;0.60;0.60;;;16.50;99.90;;;;;;5059371;28;20407;-80
2022/06/24 04:32:27;;;;;;;2.42;0.70;;;16.50;99.90;;;;;;5075903;28;20051;-81
2022/06/24 04:34:55;;;;;;;0.75;0.75;;;16.60;99.90;;;;;;5068975;28;20364;-81
2022/06/24 04:37:23;;;;;;;3.13;1.10;;;16.60;99.90;;;;;;5076822;28;20516;-81
2022/06/24 04:39:51;;;;;;;2.35;1.48;;;16.60;99.90;;;;;;5089183;28;20044;-81
2022/06/24 04:42:19;;;;;;;1.73;1.17;;;16.70;99.90;;;;;;5088768;28;20040;-81
2022/06/24 04:44:47;;;;;;;0.73;0.73;;;16.70;99.90;;;;;;5089550;28;20044;-81
2022/06/24 04:47:19;;;;;;;4.80;1.50;;;16.80;99.90;;;;;;5071713;28;20051;-81
2022/06/24 04:49:47;;;;;;;0.80;0.68;;;16.90;99.90;;;;;;5089312;28;20055;-81
2022/06/24 04:52:18;;;;;;;4.28;0.90;;;16.90;99.90;;;;;;5088976;28;20048;-80
2022/06/24 04:54:45;;;;;;;0.95;0.70;;;16.90;99.90;;;;;;5088933;28;20040;-80
2022/06/24 04:57:14;;;;;;;7.90;1.55;;;17.00;99.90;;;;;;5087729;28;20044;-81
2022/06/24 04:59:41;;;;;;;2.63;1.73;;;17.10;99.90;;;;;;5069879;28;20043;-80
2022/06/24 05:02:09;;;;;;;2.15;1.40;;;17.10;99.90;;;;;;5069856;28;20044;-78
2022/06/24 05:04:38;;;;;;;1.73;1.40;;;17.20;99.90;;;;;;5074397;28;20044;-79
2022/06/24 05:07:06;;;;;;;1.17;0.98;;;17.10;99.90;;;;;;5091697;28;20040;-78
2022/06/24 05:09:34;;;;;;;2.55;1.58;;;17.10;99.90;;;;;;5089279;28;20035;-77
2022/06/24 05:12:03;;;;;;;3.83;0.95;;;17.00;99.90;;;;;;5090909;28;20056;-77
2022/06/24 05:14:31;;;;;;;2.15;0.90;;;17.00;99.90;;;;;;5089274;28;20395;-78
2022/06/24 05:17:00;;;;;;;1.10;1.00;;;17.00;99.90;;;;;;5086750;28;20048;-78
2022/06/24 05:19:28;;;;;;;2.47;0.80;;;17.00;99.90;;;;;;5078039;28;20057;-78
2022/06/24 05:21:56;;;;;;;3.35;1.42;;;17.00;99.90;;;;;;5068400;28;20141;-78
2022/06/24 05:24:24;;;;;;;0.73;0.73;;;17.00;99.90;;;;;;5087931;28;20060;-77
2022/06/24 05:26:52;;;;;;;1.55;1.45;;;17.00;99.90;;;;;;5076734;28;20040;-78
2022/06/24 05:29:20;;;;;;;3.78;0.75;;;17.10;99.90;;;;;;5078968;28;20055;-78
2022/06/24 05:31:49;;;;;;;2.00;1.60;;;17.10;99.90;;;;;;5089365;28;20037;-78
2022/06/24 05:34:16;;;;;;;10.45;1.10;;;17.20;99.90;;;;;;5083027;28;20051;-78
2022/06/24 05:36:44;;;;;;;0.68;0.68;;;17.20;99.90;;;;;;5087584;28;20048;-77
2022/06/24 05:39:12;;;;;;;3.22;1.38;;;17.30;99.90;;;;;;5087104;28;20380;-77
2022/06/24 05:41:41;;;;;;;3.55;1.13;;;17.30;99.90;;;;;;5088982;28;20063;-77
2022/06/24 05:44:10;;;;;;;1.30;1.20;;;17.40;99.90;;;;;;5092086;28;20559;-77
2022/06/24 05:46:39;;;;;;;2.83;2.42;;;17.40;99.90;;;;;;5092073;28;20510;-78
2022/06/24 05:49:07;;;;;;;3.08;1.17;;;17.40;99.90;;;;;;5091596;28;20055;-77
2022/06/24 05:51:36;;;;;;;2.25;1.10;;;17.40;99.90;;;;;;5073328;28;20051;-77
2022/06/24 05:56:51;;;;;;;6.88;1.67;;;17.60;99.90;;;;;;5092062;28;20036;-77
2022/06/24 05:59:18;;;;;;;2.78;2.58;;;17.60;99.90;;;;;;5091166;28;20052;-77
2022/06/24 06:01:47;;;;;;;4.97;2.55;;;17.60;99.90;;;;;;5091831;28;20048;-77
2022/06/24 06:04:16;;;;;;;4.20;1.27;;;17.70;99.90;;;;;;5075710;28;20044;-78
2022/06/24 06:06:44;;;;;;;1.65;0.93;;;17.70;99.90;;;;;;5071088;28;20044;-78
2022/06/24 06:09:12;;;;;;;1.10;1.10;;;17.80;99.90;;;;;;5071587;28;20052;-78
2022/06/24 06:11:39;;;;;;;2.72;1.15;;;17.90;99.90;;;;;;5070468;28;20040;-78
2022/06/24 06:14:07;;;;;;;1.80;0.90;;;17.90;99.90;;;;;;5071021;28;20051;-78
2022/06/24 06:16:35;;;;;;;2.15;1.02;;;18.00;99.90;;;;;;5086365;28;20051;-86
2022/06/24 06:19:03;;;;;;;5.38;1.30;;;18.00;99.90;;;;;;5039722;28;20044;-84
2022/06/24 06:21:31;;;;;;;5.10;1.80;;;18.00;99.90;;;;;;5057015;28;20048;-78
2022/06/24 06:23:59;;;;;;;1.40;0.70;;;18.10;99.90;;;;;;5091321;28;20409;-78
2022/06/24 06:26:28;;;;;;;4.78;1.13;;;18.10;99.90;;;;;;5090837;28;20039;-78
2022/06/24 06:28:56;;;;;;;2.83;1.08;;;18.20;99.90;;;;;;5090957;28;20467;-78
2022/06/24 06:31:24;;;;;;;0.98;0.93;;;18.20;99.90;;;;;;5091040;28;20044;-78
2022/06/24 06:33:52;;;;;;;14.10;1.55;;;18.20;99.90;;;;;;5091249;28;20130;-79
2022/06/24 06:36:20;;;;;;;7.07;1.52;;;18.20;99.90;;;;;;5090779;28;20056;-79
2022/06/24 06:38:48;;;;;;;1.02;1.02;;;18.20;99.90;;;;;;5090545;28;20044;-79
2022/06/24 06:41:19;;;;;;;3.88;0.80;;;18.20;99.90;;;;;;5087444;28;20047;-79
2022/06/24 06:43:47;;;;;;;;;;;18.20;99.90;;;;;;5070895;28;20041;-79
2022/06/24 06:46:15;;;;;;;1.83;0.80;;;18.20;99.90;;;;;;5070558;28;20275;-79
2022/06/24 06:48:43;;;;;;;1.30;0.73;;;18.20;99.90;;;;;;5070895;28;20074;-79
2022/06/24 06:51:10;;;;;;;4.32;1.02;;;18.20;99.90;;;;;;5069960;28;20040;-79
2022/06/24 06:53:38;;;;;;;1.75;1.25;;;18.30;99.90;;;;;;5070772;28;20399;-78
2022/06/24 06:56:06;;;;;;;9.07;1.20;;;18.30;99.90;;;;;;5069912;28;20490;-79
2022/06/24 06:58:34;;;;;;;6.70;1.33;;;18.30;99.90;;;;;;5070091;28;20297;-79
2022/06/24 07:01:02;;;;;;;3.03;1.15;;;18.40;99.90;;;;;;5070500;28;20051;-84
2022/06/24 07:03:30;;;;;;;3.60;1.10;;;18.40;99.90;;;;;;5035596;28;20052;-78
2022/06/24 07:05:58;;;;;;;2.35;0.88;;;18.40;99.90;;;;;;5070244;28;20051;-78
2022/06/24 07:08:25;;;;;;;4.00;1.27;;;18.40;99.90;;;;;;5069740;28;20048;-79
2022/06/24 07:10:53;;;;;;;4.25;1.10;;;18.50;99.90;;;;;;5052245;28;20135;-79
2022/06/24 07:13:21;;;;;;;6.78;1.63;;;18.70;99.90;;;;;;5070628;28;20081;-78
2022/06/24 07:15:49;;;;;;;1.40;1.13;;;18.80;99.90;;;;;;5069721;28;20040;-78
2022/06/24 07:18:17;;;;;;;5.88;0.80;;;18.80;99.90;;;;;;5069626;28;20486;-80
2022/06/24 07:20:45;;;;;;;5.50;1.98;;;18.90;99.90;;;;;;5085634;28;20067;-80
2022/06/24 07:23:13;;;;;;;1.77;0.63;;;19.00;99.90;;;;;;5071289;28;20048;-80
